sensor_id;sensor_type;location;lat;lon;timestamp;P1;P2;P0
30713;PMS7003;17465;47.934;33.430;2024-03-22T00:00:51;68.25;55.50;31.25
30713;PMS7003;17465;47.934;33.430;2024-03-22T00:03:21;70.75;57.25;36.00
30713;PMS7003;17465;47.934;33.430;2024-03-22T00:05:55;64.25;51.25;31.00
30713;PMS7003;17465;47.934;33.430;2024-03-22T00:08:25;67.75;55.25;31.25
30713;PMS7003;17465;47.934;33.430;2024-03-22T00:10:55;66.25;52.50;31.75
30713;PMS7003;17465;47.934;33.430;2024-03-22T00:13:27;73.25;57.25;35.25
30713;PMS7003;17465;47.934;33.430;2024-03-22T00:16:03;76.00;60.25;35.75
30713;PMS7003;17465;47.934;33.430;2024-03-22T00:19:10;63.25;53.00;31.00
30713;PMS7003;17465;47.934;33.430;2024-03-22T00:21:40;67.75;56.00;34.00
30713;PMS7003;17465;47.934;33.430;2024-03-22T00:24:13;63.75;50.25;33.25
30713;PMS7003;17465;47.934;33.430;2024-03-22T00:26:43;66.50;52.00;30.75
30713;PMS7003;17465;47.934;33.430;2024-03-22T00:29:13;65.50;53.25;32.00
30713;PMS7003;17465;47.934;33.430;2024-03-22T00:31:48;73.00;55.50;31.00
30713;PMS7003;17465;47.934;33.430;2024-03-22T00:34:18;73.25;58.50;38.00
30713;PMS7003;17465;47.934;33.430;2024-03-22T00:36:58;69.75;57.00;34.75
30713;PMS7003;17465;47.934;33.430;2024-03-22T00:39:28;61.00;50.75;31.00
30713;PMS7003;17465;47.934;33.430;2024-03-22T00:41:58;60.00;49.00;32.50
30713;PMS7003;17465;47.934;33.430;2024-03-22T00:44:28;73.50;56.75;33.75
30713;PMS7003;17465;47.934;33.430;2024-03-22T00:46:58;64.25;53.25;33.75
30713;PMS7003;17465;47.934;33.430;2024-03-22T00:49:29;74.25;59.25;37.00
30713;PMS7003;17465;47.934;33.430;2024-03-22T00:52:05;75.75;59.00;34.50
30713;PMS7003;17465;47.934;33.430;2024-03-22T00:54:31;68.25;57.25;37.00
30713;PMS7003;17465;47.934;33.430;2024-03-22T00:57:01;72.25;60.00;36.00
30713;PMS7003;17465;47.934;33.430;2024-03-22T00:59:53;81.25;62.50;36.25
30713;PMS7003;17465;47.934;33.430;2024-03-22T01:02:09;80.00;60.25;35.75
30713;PMS7003;17465;47.934;33.430;2024-03-22T01:04:44;74.75;58.00;36.00
30713;PMS7003;17465;47.934;33.430;2024-03-22T01:07:17;77.25;62.50;37.25
30713;PMS7003;17465;47.934;33.430;2024-03-22T01:09:52;64.25;51.50;31.25
30713;PMS7003;17465;47.934;33.430;2024-03-22T01:12:26;75.25;59.50;35.00
30713;PMS7003;17465;47.934;33.430;2024-03-22T01:14:57;80.00;61.50;37.00
30713;PMS7003;17465;47.934;33.430;2024-03-22T01:17:29;77.25;61.50;36.50
30713;PMS7003;17465;47.934;33.430;2024-03-22T01:20:04;78.75;62.00;35.50
30713;PMS7003;17465;47.934;33.430;2024-03-22T01:22:36;75.75;61.00;34.25
30713;PMS7003;17465;47.934;33.430;2024-03-22T01:25:08;83.25;63.75;37.00
30713;PMS7003;17465;47.934;33.430;2024-03-22T01:27:40;81.00;61.25;37.25
30713;PMS7003;17465;47.934;33.430;2024-03-22T01:30:12;80.50;63.00;34.75
30713;PMS7003;17465;47.934;33.430;2024-03-22T01:32:53;69.75;57.00;30.75
30713;PMS7003;17465;47.934;33.430;2024-03-22T01:35:18;71.50;58.50;36.50
30713;PMS7003;17465;47.934;33.430;2024-03-22T01:40:50;75.25;60.25;35.50
30713;PMS7003;17465;47.934;33.430;2024-03-22T01:43:27;73.25;58.25;34.00
30713;PMS7003;17465;47.934;33.430;2024-03-22T01:45:58;81.25;63.50;38.25
30713;PMS7003;17465;47.934;33.430;2024-03-22T01:48:35;77.75;59.25;36.25
30713;PMS7003;17465;47.934;33.430;2024-03-22T01:51:06;78.75;62.00;37.00
30713;PMS7003;17465;47.934;33.430;2024-03-22T01:53:43;82.00;62.25;38.00
30713;PMS7003;17465;47.934;33.430;2024-03-22T01:56:19;81.00;64.00;39.50
30713;PMS7003;17465;47.934;33.430;2024-03-22T01:58:50;76.00;61.25;36.25
30713;PMS7003;17465;47.934;33.430;2024-03-22T02:01:24;84.75;66.25;42.00
30713;PMS7003;17465;47.934;33.430;2024-03-22T02:03:54;79.50;63.75;38.25
30713;PMS7003;17465;47.934;33.430;2024-03-22T02:06:29;70.00;51.50;25.00
30713;PMS7003;17465;47.934;33.430;2024-03-22T02:08:59;81.75;65.75;38.25
30713;PMS7003;17465;47.934;33.430;2024-03-22T02:11:30;80.25;64.00;38.00
30713;PMS7003;17465;47.934;33.430;2024-03-22T02:14:06;80.00;63.50;39.75
30713;PMS7003;17465;47.934;33.430;2024-03-22T02:16:39;77.25;63.00;37.00
30713;PMS7003;17465;47.934;33.430;2024-03-22T02:19:13;78.25;61.50;38.00
30713;PMS7003;17465;47.934;33.430;2024-03-22T02:22:01;81.75;62.75;38.00
30713;PMS7003;17465;47.934;33.430;2024-03-22T02:24:33;80.25;65.00;40.50
30713;PMS7003;17465;47.934;33.430;2024-03-22T02:27:06;77.75;60.75;36.75
30713;PMS7003;17465;47.934;33.430;2024-03-22T02:29:38;78.50;63.75;36.00
30713;PMS7003;17465;47.934;33.430;2024-03-22T02:32:30;85.50;66.25;38.00
30713;PMS7003;17465;47.934;33.430;2024-03-22T02:34:48;75.25;60.50;37.75
30713;PMS7003;17465;47.934;33.430;2024-03-22T02:37:24;79.75;62.75;37.75
30713;PMS7003;17465;47.934;33.430;2024-03-22T02:39:54;75.25;60.00;34.75
30713;PMS7003;17465;47.934;33.430;2024-03-22T02:42:29;79.75;61.75;39.25
30713;PMS7003;17465;47.934;33.430;2024-03-22T02:45:00;69.00;55.50;35.50
30713;PMS7003;17465;47.934;33.430;2024-03-22T02:47:45;78.25;63.25;37.00
30713;PMS7003;17465;47.934;33.430;2024-03-22T02:50:31;67.00;53.00;29.75
30713;PMS7003;17465;47.934;33.430;2024-03-22T02:52:58;72.75;57.25;34.50
30713;PMS7003;17465;47.934;33.430;2024-03-22T02:55:29;60.75;49.25;29.00
30713;PMS7003;17465;47.934;33.430;2024-03-22T02:58:02;74.25;58.75;33.50
30713;PMS7003;17465;47.934;33.430;2024-03-22T03:00:37;70.25;54.00;31.50
30713;PMS7003;17465;47.934;33.430;2024-03-22T03:03:11;66.50;55.75;31.50
30713;PMS7003;17465;47.934;33.430;2024-03-22T03:05:42;67.75;53.25;30.25
30713;PMS7003;17465;47.934;33.430;2024-03-22T03:08:16;62.50;51.50;26.00
30713;PMS7003;17465;47.934;33.430;2024-03-22T03:10:49;72.50;54.50;32.00
30713;PMS7003;17465;47.934;33.430;2024-03-22T03:13:25;64.00;52.75;29.00
30713;PMS7003;17465;47.934;33.430;2024-03-22T03:15:55;76.00;55.00;31.50
30713;PMS7003;17465;47.934;33.430;2024-03-22T03:18:30;72.75;57.25;30.50
30713;PMS7003;17465;47.934;33.430;2024-03-22T03:21:01;64.00;53.75;30.25
30713;PMS7003;17465;47.934;33.430;2024-03-22T03:23:38;75.25;60.50;36.00
30713;PMS7003;17465;47.934;33.430;2024-03-22T03:26:03;80.50;64.00;35.75
30713;PMS7003;17465;47.934;33.430;2024-03-22T03:28:34;70.25;58.00;30.25
30713;PMS7003;17465;47.934;33.430;2024-03-22T03:31:04;75.25;60.50;35.00
30713;PMS7003;17465;47.934;33.430;2024-03-22T03:33:35;83.75;64.25;36.25
30713;PMS7003;17465;47.934;33.430;2024-03-22T03:36:07;75.00;59.00;33.50
30713;PMS7003;17465;47.934;33.430;2024-03-22T03:38:39;75.00;61.00;34.75
30713;PMS7003;17465;47.934;33.430;2024-03-22T03:41:14;71.25;59.00;34.75
30713;PMS7003;17465;47.934;33.430;2024-03-22T03:55:46;72.25;56.25;34.00
30713;PMS7003;17465;47.934;33.430;2024-03-22T03:58:16;82.00;64.75;40.00
30713;PMS7003;17465;47.934;33.430;2024-03-22T04:00:47;87.25;67.50;40.50
30713;PMS7003;17465;47.934;33.430;2024-03-22T04:03:17;84.25;67.75;41.00
30713;PMS7003;17465;47.934;33.430;2024-03-22T04:05:55;83.50;63.25;37.00
30713;PMS7003;17465;47.934;33.430;2024-03-22T04:08:28;86.75;67.75;40.50
30713;PMS7003;17465;47.934;33.430;2024-03-22T04:10:59;85.50;64.75;39.75
30713;PMS7003;17465;47.934;33.430;2024-03-22T04:13:29;81.00;64.00;37.75
30713;PMS7003;17465;47.934;33.430;2024-03-22T04:15:59;84.00;67.25;36.75
30713;PMS7003;17465;47.934;33.430;2024-03-22T04:18:30;81.00;67.00;37.00
30713;PMS7003;17465;47.934;33.430;2024-03-22T04:21:00;78.50;61.25;33.25
30713;PMS7003;17465;47.934;33.430;2024-03-22T04:23:31;69.00;54.50;26.75
30713;PMS7003;17465;47.934;33.430;2024-03-22T04:26:02;67.00;55.50;26.25
30713;PMS7003;17465;47.934;33.430;2024-03-22T04:28:32;69.50;55.50;27.50
30713;PMS7003;17465;47.934;33.430;2024-03-22T04:31:03;58.75;47.00;32.00
30713;PMS7003;17465;47.934;33.430;2024-03-22T04:33:35;78.75;59.00;30.75
30713;PMS7003;17465;47.934;33.430;2024-03-22T04:36:06;74.50;55.25;29.25
30713;PMS7003;17465;47.934;33.430;2024-03-22T04:38:38;69.75;55.00;28.75
30713;PMS7003;17465;47.934;33.430;2024-03-22T04:41:08;63.50;52.75;30.50
30713;PMS7003;17465;47.934;33.430;2024-03-22T04:43:38;66.75;51.75;29.00
30713;PMS7003;17465;47.934;33.430;2024-03-22T04:46:08;70.75;56.00;30.75
30713;PMS7003;17465;47.934;33.430;2024-03-22T04:48:39;72.00;57.50;34.25
30713;PMS7003;17465;47.934;33.430;2024-03-22T04:51:09;68.25;55.25;32.75
30713;PMS7003;17465;47.934;33.430;2024-03-22T04:53:39;75.50;59.50;31.25
30713;PMS7003;17465;47.934;33.430;2024-03-22T04:56:11;62.75;52.50;27.00
30713;PMS7003;17465;47.934;33.430;2024-03-22T04:58:41;72.50;60.00;34.25
30713;PMS7003;17465;47.934;33.430;2024-03-22T05:01:11;74.25;59.75;35.50
30713;PMS7003;17465;47.934;33.430;2024-03-22T05:03:41;65.25;51.50;27.50
30713;PMS7003;17465;47.934;33.430;2024-03-22T05:06:12;73.25;56.75;31.75
30713;PMS7003;17465;47.934;33.430;2024-03-22T05:08:42;72.00;57.75;32.75
30713;PMS7003;17465;47.934;33.430;2024-03-22T05:11:12;72.75;59.00;33.00
30713;PMS7003;17465;47.934;33.430;2024-03-22T05:13:42;64.75;52.00;24.50
30713;PMS7003;17465;47.934;33.430;2024-03-22T05:16:12;52.50;45.00;29.75
30713;PMS7003;17465;47.934;33.430;2024-03-22T05:18:43;67.00;54.00;29.50
30713;PMS7003;17465;47.934;33.430;2024-03-22T05:21:13;69.75;55.50;34.50
30713;PMS7003;17465;47.934;33.430;2024-03-22T05:23:43;73.25;58.25;34.50
30713;PMS7003;17465;47.934;33.430;2024-03-22T05:26:13;70.25;56.00;32.75
30713;PMS7003;17465;47.934;33.430;2024-03-22T05:28:44;67.25;54.25;32.00
30713;PMS7003;17465;47.934;33.430;2024-03-22T05:31:14;66.00;53.50;32.50
30713;PMS7003;17465;47.934;33.430;2024-03-22T05:33:44;54.00;42.25;26.75
30713;PMS7003;17465;47.934;33.430;2024-03-22T05:36:14;61.75;51.00;32.00
30713;PMS7003;17465;47.934;33.430;2024-03-22T05:38:45;64.25;53.00;30.50
30713;PMS7003;17465;47.934;33.430;2024-03-22T05:41:17;63.75;51.75;30.00
30713;PMS7003;17465;47.934;33.430;2024-03-22T05:43:47;54.25;45.50;30.00
30713;PMS7003;17465;47.934;33.430;2024-03-22T05:46:18;57.25;43.50;29.75
30713;PMS7003;17465;47.934;33.430;2024-03-22T05:48:48;64.00;52.75;30.75
30713;PMS7003;17465;47.934;33.430;2024-03-22T05:51:18;56.50;44.50;25.50
30713;PMS7003;17465;47.934;33.430;2024-03-22T05:53:48;59.00;47.75;27.75
30713;PMS7003;17465;47.934;33.430;2024-03-22T05:56:18;44.25;37.25;25.75
30713;PMS7003;17465;47.934;33.430;2024-03-22T05:58:49;55.75;46.25;29.00
30713;PMS7003;17465;47.934;33.430;2024-03-22T06:01:19;54.75;46.00;28.25
30713;PMS7003;17465;47.934;33.430;2024-03-22T06:03:49;83.25;67.25;60.50
30713;PMS7003;17465;47.934;33.430;2024-03-22T06:06:20;37.00;36.25;13.50
30713;PMS7003;17465;47.934;33.430;2024-03-22T06:08:50;34.50;33.00;12.75
30713;PMS7003;17465;47.934;33.430;2024-03-22T06:11:21;49.25;42.25;20.25
30713;PMS7003;17465;47.934;33.430;2024-03-22T06:13:51;41.75;39.00;25.50
30713;PMS7003;17465;47.934;33.430;2024-03-22T06:16:21;44.00;38.25;24.00
30713;PMS7003;17465;47.934;33.430;2024-03-22T06:18:54;47.75;40.25;20.00
30713;PMS7003;17465;47.934;33.430;2024-03-22T06:21:25;50.00;41.75;23.75
30713;PMS7003;17465;47.934;33.430;2024-03-22T06:24:01;47.00;39.75;25.00
30713;PMS7003;17465;47.934;33.430;2024-03-22T06:26:31;55.25;43.00;27.25
30713;PMS7003;17465;47.934;33.430;2024-03-22T06:29:03;52.50;41.75;26.00
30713;PMS7003;17465;47.934;33.430;2024-03-22T06:31:33;51.25;41.25;26.00
30713;PMS7003;17465;47.934;33.430;2024-03-22T06:34:09;50.00;42.00;24.25
30713;PMS7003;17465;47.934;33.430;2024-03-22T06:36:35;53.00;43.25;25.50
30713;PMS7003;17465;47.934;33.430;2024-03-22T06:39:05;50.50;41.50;25.25
30713;PMS7003;17465;47.934;33.430;2024-03-22T06:41:44;41.00;37.00;21.25
30713;PMS7003;17465;47.934;33.430;2024-03-22T06:44:10;45.00;38.00;21.00
30713;PMS7003;17465;47.934;33.430;2024-03-22T06:46:41;47.25;40.25;23.75
30713;PMS7003;17465;47.934;33.430;2024-03-22T06:49:11;39.00;35.00;24.00
30713;PMS7003;17465;47.934;33.430;2024-03-22T06:51:42;37.50;33.75;21.50
30713;PMS7003;17465;47.934;33.430;2024-03-22T06:54:13;40.75;38.00;23.25
30713;PMS7003;17465;47.934;33.430;2024-03-22T06:56:43;52.50;42.25;23.25
30713;PMS7003;17465;47.934;33.430;2024-03-22T06:59:13;44.75;39.50;22.75
30713;PMS7003;17465;47.934;33.430;2024-03-22T07:01:43;41.25;37.50;21.00
30713;PMS7003;17465;47.934;33.430;2024-03-22T07:04:16;41.00;37.00;23.00
30713;PMS7003;17465;47.934;33.430;2024-03-22T07:06:46;30.50;24.50;15.00
30713;PMS7003;17465;47.934;33.430;2024-03-22T07:09:19;38.25;35.00;21.75
30713;PMS7003;17465;47.934;33.430;2024-03-22T07:11:49;36.25;34.25;21.25
30713;PMS7003;17465;47.934;33.430;2024-03-22T07:14:25;41.25;37.00;23.25
30713;PMS7003;17465;47.934;33.430;2024-03-22T07:16:55;39.50;36.75;23.00
30713;PMS7003;17465;47.934;33.430;2024-03-22T07:19:25;36.75;35.00;20.50
30713;PMS7003;17465;47.934;33.430;2024-03-22T07:21:55;38.50;36.50;22.75
30713;PMS7003;17465;47.934;33.430;2024-03-22T07:24:28;39.25;35.25;23.00
30713;PMS7003;17465;47.934;33.430;2024-03-22T07:27:01;36.00;33.75;23.00
30713;PMS7003;17465;47.934;33.430;2024-03-22T07:29:33;36.25;33.00;19.50
30713;PMS7003;17465;47.934;33.430;2024-03-22T07:32:16;33.50;31.25;18.75
30713;PMS7003;17465;47.934;33.430;2024-03-22T07:34:48;36.50;34.75;21.00
30713;PMS7003;17465;47.934;33.430;2024-03-22T07:37:18;30.75;29.50;15.50
30713;PMS7003;17465;47.934;33.430;2024-03-22T07:39:50;34.75;33.50;20.50
30713;PMS7003;17465;47.934;33.430;2024-03-22T07:42:23;35.25;31.50;19.00
30713;PMS7003;17465;47.934;33.430;2024-03-22T07:45:04;37.00;32.75;18.75
30713;PMS7003;17465;47.934;33.430;2024-03-22T07:47:30;31.25;28.25;20.25
30713;PMS7003;17465;47.934;33.430;2024-03-22T07:50:02;37.75;35.00;22.25
30713;PMS7003;17465;47.934;33.430;2024-03-22T07:52:33;37.75;34.75;20.75
30713;PMS7003;17465;47.934;33.430;2024-03-22T07:55:04;36.75;32.50;20.75
30713;PMS7003;17465;47.934;33.430;2024-03-22T07:57:38;35.75;32.50;21.25
30713;PMS7003;17465;47.934;33.430;2024-03-22T08:00:09;40.50;35.00;20.75
30713;PMS7003;17465;47.934;33.430;2024-03-22T08:02:42;42.00;36.75;21.75
30713;PMS7003;17465;47.934;33.430;2024-03-22T08:05:12;42.25;38.25;24.00
30713;PMS7003;17465;47.934;33.430;2024-03-22T08:07:43;29.25;29.25;16.00
30713;PMS7003;17465;47.934;33.430;2024-03-22T08:10:14;36.50;31.25;21.00
30713;PMS7003;17465;47.934;33.430;2024-03-22T08:12:46;26.50;24.50;12.00
30713;PMS7003;17465;47.934;33.430;2024-03-22T08:15:17;27.75;26.25;18.25
30713;PMS7003;17465;47.934;33.430;2024-03-22T08:17:47;40.00;36.25;23.25
30713;PMS7003;17465;47.934;33.430;2024-03-22T08:20:17;40.25;33.75;21.75
30713;PMS7003;17465;47.934;33.430;2024-03-22T08:22:47;42.00;37.25;25.00
30713;PMS7003;17465;47.934;33.430;2024-03-22T08:25:17;35.50;33.25;22.25
30713;PMS7003;17465;47.934;33.430;2024-03-22T08:27:48;27.25;26.50;19.25
30713;PMS7003;17465;47.934;33.430;2024-03-22T08:30:20;37.00;34.50;20.00
30713;PMS7003;17465;47.934;33.430;2024-03-22T08:32:51;30.75;28.25;16.50
30713;PMS7003;17465;47.934;33.430;2024-03-22T08:35:22;39.00;36.25;23.00
30713;PMS7003;17465;47.934;33.430;2024-03-22T08:37:52;35.00;32.00;20.75
30713;PMS7003;17465;47.934;33.430;2024-03-22T08:40:22;39.00;36.25;21.25
30713;PMS7003;17465;47.934;33.430;2024-03-22T08:42:53;48.00;38.75;23.00
30713;PMS7003;17465;47.934;33.430;2024-03-22T08:45:23;46.50;41.25;25.50
30713;PMS7003;17465;47.934;33.430;2024-03-22T08:47:53;50.25;41.25;26.00
30713;PMS7003;17465;47.934;33.430;2024-03-22T08:50:24;50.50;38.50;23.00
30713;PMS7003;17465;47.934;33.430;2024-03-22T08:52:55;44.00;38.50;24.00
30713;PMS7003;17465;47.934;33.430;2024-03-22T08:55:25;44.75;40.25;24.75
30713;PMS7003;17465;47.934;33.430;2024-03-22T08:57:56;47.00;41.00;24.75
30713;PMS7003;17465;47.934;33.430;2024-03-22T09:00:28;47.00;41.25;24.25
30713;PMS7003;17465;47.934;33.430;2024-03-22T09:02:58;39.25;36.25;23.00
30713;PMS7003;17465;47.934;33.430;2024-03-22T09:05:28;43.00;38.00;23.50
30713;PMS7003;17465;47.934;33.430;2024-03-22T09:07:59;43.00;35.00;21.00
30713;PMS7003;17465;47.934;33.430;2024-03-22T09:10:30;46.25;39.00;26.00
30713;PMS7003;17465;47.934;33.430;2024-03-22T09:13:01;38.25;34.00;18.75
30713;PMS7003;17465;47.934;33.430;2024-03-22T09:15:32;46.50;40.00;25.00
30713;PMS7003;17465;47.934;33.430;2024-03-22T09:18:02;46.75;39.00;25.25
30713;PMS7003;17465;47.934;33.430;2024-03-22T09:20:33;51.25;42.50;25.75
30713;PMS7003;17465;47.934;33.430;2024-03-22T09:23:03;53.00;42.25;26.00
30713;PMS7003;17465;47.934;33.430;2024-03-22T09:25:34;49.75;41.75;27.25
30713;PMS7003;17465;47.934;33.430;2024-03-22T09:28:05;45.00;36.75;19.50
30713;PMS7003;17465;47.934;33.430;2024-03-22T09:30:39;51.00;41.25;26.00
30713;PMS7003;17465;47.934;33.430;2024-03-22T09:33:11;43.75;38.00;20.75
30713;PMS7003;17465;47.934;33.430;2024-03-22T09:35:41;48.25;41.50;26.00
30713;PMS7003;17465;47.934;33.430;2024-03-22T09:38:13;48.00;40.00;26.00
30713;PMS7003;17465;47.934;33.430;2024-03-22T09:40:43;49.75;41.00;26.75
30713;PMS7003;17465;47.934;33.430;2024-03-22T09:43:16;54.50;44.75;26.75
30713;PMS7003;17465;47.934;33.430;2024-03-22T09:45:48;49.50;42.00;25.75
30713;PMS7003;17465;47.934;33.430;2024-03-22T09:48:19;56.25;45.00;26.75
30713;PMS7003;17465;47.934;33.430;2024-03-22T09:50:50;51.00;42.75;25.75
30713;PMS7003;17465;47.934;33.430;2024-03-22T09:53:21;44.00;37.00;22.25
30713;PMS7003;17465;47.934;33.430;2024-03-22T09:55:51;45.75;41.00;25.00
30713;PMS7003;17465;47.934;33.430;2024-03-22T09:58:23;39.75;35.00;22.00
30713;PMS7003;17465;47.934;33.430;2024-03-22T10:00:53;53.25;41.00;25.25
30713;PMS7003;17465;47.934;33.430;2024-03-22T10:03:24;45.25;39.00;23.75
30713;PMS7003;17465;47.934;33.430;2024-03-22T10:05:54;45.75;39.50;24.50
30713;PMS7003;17465;47.934;33.430;2024-03-22T10:08:24;47.00;40.75;24.00
30713;PMS7003;17465;47.934;33.430;2024-03-22T10:10:55;47.75;40.75;25.75
30713;PMS7003;17465;47.934;33.430;2024-03-22T10:13:26;49.00;41.25;26.00
30713;PMS7003;17465;47.934;33.430;2024-03-22T10:15:56;37.50;34.50;23.50
30713;PMS7003;17465;47.934;33.430;2024-03-22T10:18:27;48.00;37.75;24.25
30713;PMS7003;17465;47.934;33.430;2024-03-22T10:21:06;42.75;38.50;23.75
30713;PMS7003;17465;47.934;33.430;2024-03-22T10:23:36;55.50;40.75;26.00
30713;PMS7003;17465;47.934;33.430;2024-03-22T10:26:07;51.50;40.25;24.50
30713;PMS7003;17465;47.934;33.430;2024-03-22T10:28:37;45.75;39.00;25.00
30713;PMS7003;17465;47.934;33.430;2024-03-22T10:31:15;42.00;37.00;22.25
30713;PMS7003;17465;47.934;33.430;2024-03-22T10:33:47;41.75;37.00;22.25
30713;PMS7003;17465;47.934;33.430;2024-03-22T10:36:18;43.75;38.25;25.00
30713;PMS7003;17465;47.934;33.430;2024-03-22T10:38:49;43.75;36.50;23.50
30713;PMS7003;17465;47.934;33.430;2024-03-22T10:41:24;50.50;41.50;24.75
30713;PMS7003;17465;47.934;33.430;2024-03-22T10:44:04;40.75;37.00;22.00
30713;PMS7003;17465;47.934;33.430;2024-03-22T10:46:37;42.00;35.50;25.00
30713;PMS7003;17465;47.934;33.430;2024-03-22T10:49:09;41.75;36.00;22.00
30713;PMS7003;17465;47.934;33.430;2024-03-22T10:51:49;31.75;24.75;18.00
30713;PMS7003;17465;47.934;33.430;2024-03-22T10:54:34;38.00;34.00;20.50
30713;PMS7003;17465;47.934;33.430;2024-03-22T10:57:11;30.50;29.25;19.00
30713;PMS7003;17465;47.934;33.430;2024-03-22T10:59:42;31.25;29.25;19.50
30713;PMS7003;17465;47.934;33.430;2024-03-22T11:02:12;39.75;35.00;19.50
30713;PMS7003;17465;47.934;33.430;2024-03-22T11:04:43;44.00;38.75;24.50
30713;PMS7003;17465;47.934;33.430;2024-03-22T11:07:22;35.00;33.75;21.50
30713;PMS7003;17465;47.934;33.430;2024-03-22T11:09:52;35.25;34.00;20.00
30713;PMS7003;17465;47.934;33.430;2024-03-22T11:12:24;33.00;29.50;19.50
30713;PMS7003;17465;47.934;33.430;2024-03-22T11:15:01;36.00;32.75;21.00
30713;PMS7003;17465;47.934;33.430;2024-03-22T11:17:27;29.50;28.75;18.00
30713;PMS7003;17465;47.934;33.430;2024-03-22T11:19:57;35.50;33.25;18.00
30713;PMS7003;17465;47.934;33.430;2024-03-22T11:22:27;40.75;35.50;19.00
30713;PMS7003;17465;47.934;33.430;2024-03-22T11:24:58;30.25;29.50;15.50
30713;PMS7003;17465;47.934;33.430;2024-03-22T11:27:28;31.75;28.25;17.75
30713;PMS7003;17465;47.934;33.430;2024-03-22T11:29:58;32.00;29.75;17.50
30713;PMS7003;17465;47.934;33.430;2024-03-22T11:32:29;35.25;31.00;19.50
30713;PMS7003;17465;47.934;33.430;2024-03-22T11:34:59;36.00;34.25;20.25
30713;PMS7003;17465;47.934;33.430;2024-03-22T11:37:30;31.75;29.50;18.75
30713;PMS7003;17465;47.934;33.430;2024-03-22T11:40:01;35.50;32.50;16.75
30713;PMS7003;17465;47.934;33.430;2024-03-22T11:42:36;30.00;28.00;16.25
30713;PMS7003;17465;47.934;33.430;2024-03-22T11:45:04;28.25;27.25;16.25
30713;PMS7003;17465;47.934;33.430;2024-03-22T11:47:36;31.00;29.75;16.50
30713;PMS7003;17465;47.934;33.430;2024-03-22T11:50:16;27.75;26.75;19.75
30713;PMS7003;17465;47.934;33.430;2024-03-22T11:52:43;26.50;26.00;15.75
30713;PMS7003;17465;47.934;33.430;2024-03-22T11:55:14;29.50;28.00;16.25
30713;PMS7003;17465;47.934;33.430;2024-03-22T11:57:50;29.50;26.00;17.25
30713;PMS7003;17465;47.934;33.430;2024-03-22T12:00:20;25.75;24.50;13.50
30713;PMS7003;17465;47.934;33.430;2024-03-22T12:02:52;25.50;25.50;15.00
30713;PMS7003;17465;47.934;33.430;2024-03-22T12:05:23;29.50;27.25;15.75
30713;PMS7003;17465;47.934;33.430;2024-03-22T12:07:53;19.75;19.50;12.25
30713;PMS7003;17465;47.934;33.430;2024-03-22T12:10:23;29.00;26.25;17.75
30713;PMS7003;17465;47.934;33.430;2024-03-22T12:12:54;28.75;28.75;18.00
30713;PMS7003;17465;47.934;33.430;2024-03-22T12:15:28;21.75;20.00;11.00
30713;PMS7003;17465;47.934;33.430;2024-03-22T12:18:00;20.50;20.50;13.25
30713;PMS7003;17465;47.934;33.430;2024-03-22T12:20:31;19.75;19.75;12.75
30713;PMS7003;17465;47.934;33.430;2024-03-22T12:23:02;25.75;23.75;15.00
30713;PMS7003;17465;47.934;33.430;2024-03-22T12:25:35;22.75;22.00;14.00
30713;PMS7003;17465;47.934;33.430;2024-03-22T12:28:05;23.50;23.25;13.50
30713;PMS7003;17465;47.934;33.430;2024-03-22T12:30:35;23.00;22.50;15.00
30713;PMS7003;17465;47.934;33.430;2024-03-22T12:33:07;23.25;22.50;14.25
30713;PMS7003;17465;47.934;33.430;2024-03-22T12:35:44;24.75;22.75;13.25
30713;PMS7003;17465;47.934;33.430;2024-03-22T12:38:10;24.75;24.50;16.00
30713;PMS7003;17465;47.934;33.430;2024-03-22T12:40:40;20.75;20.75;13.75
30713;PMS7003;17465;47.934;33.430;2024-03-22T12:43:12;23.50;21.25;15.00
30713;PMS7003;17465;47.934;33.430;2024-03-22T12:45:42;18.50;18.50;10.75
30713;PMS7003;17465;47.934;33.430;2024-03-22T12:48:13;24.00;22.00;15.75
30713;PMS7003;17465;47.934;33.430;2024-03-22T12:50:43;19.00;18.00;13.50
30713;PMS7003;17465;47.934;33.430;2024-03-22T12:53:13;20.00;18.75;13.00
30713;PMS7003;17465;47.934;33.430;2024-03-22T12:55:46;22.00;21.75;11.00
30713;PMS7003;17465;47.934;33.430;2024-03-22T12:58:17;28.25;23.75;14.75
30713;PMS7003;17465;47.934;33.430;2024-03-22T13:00:47;24.25;23.00;14.00
30713;PMS7003;17465;47.934;33.430;2024-03-22T13:03:17;22.75;21.25;12.75
30713;PMS7003;17465;47.934;33.430;2024-03-22T13:05:47;22.50;20.00;10.75
30713;PMS7003;17465;47.934;33.430;2024-03-22T13:08:19;26.25;26.25;17.00
30713;PMS7003;17465;47.934;33.430;2024-03-22T13:10:53;25.00;24.50;15.25
30713;PMS7003;17465;47.934;33.430;2024-03-22T13:13:23;24.25;22.75;12.25
30713;PMS7003;17465;47.934;33.430;2024-03-22T13:15:56;22.50;22.50;14.25
30713;PMS7003;17465;47.934;33.430;2024-03-22T13:18:29;26.75;22.75;14.75
30713;PMS7003;17465;47.934;33.430;2024-03-22T13:20:59;21.25;20.25;12.75
30713;PMS7003;17465;47.934;33.430;2024-03-22T13:23:30;19.00;18.00;12.00
30713;PMS7003;17465;47.934;33.430;2024-03-22T13:26:07;16.00;16.00;11.00
30713;PMS7003;17465;47.934;33.430;2024-03-22T13:28:34;21.00;16.75;10.75
30713;PMS7003;17465;47.934;33.430;2024-03-22T13:31:04;10.50;8.50;6.00
30713;PMS7003;17465;47.934;33.430;2024-03-22T13:33:35;20.00;19.50;10.50
30713;PMS7003;17465;47.934;33.430;2024-03-22T13:36:05;21.75;20.00;13.75
30713;PMS7003;17465;47.934;33.430;2024-03-22T13:38:35;18.75;16.50;11.25
30713;PMS7003;17465;47.934;33.430;2024-03-22T13:41:07;18.50;17.50;12.00
30713;PMS7003;17465;47.934;33.430;2024-03-22T13:43:37;16.75;16.50;11.00
30713;PMS7003;17465;47.934;33.430;2024-03-22T13:46:07;20.00;20.00;11.50
30713;PMS7003;17465;47.934;33.430;2024-03-22T13:48:38;21.50;19.00;13.50
30713;PMS7003;17465;47.934;33.430;2024-03-22T13:51:08;13.75;13.00;7.00
30713;PMS7003;17465;47.934;33.430;2024-03-22T13:53:40;19.00;16.50;8.50
30713;PMS7003;17465;47.934;33.430;2024-03-22T13:56:10;21.25;19.75;12.00
30713;PMS7003;17465;47.934;33.430;2024-03-22T13:58:40;17.25;17.00;10.75
30713;PMS7003;17465;47.934;33.430;2024-03-22T14:01:10;19.25;19.25;12.50
30713;PMS7003;17465;47.934;33.430;2024-03-22T14:03:40;15.25;13.50;7.50
30713;PMS7003;17465;47.934;33.430;2024-03-22T14:06:11;20.75;19.25;12.00
30713;PMS7003;17465;47.934;33.430;2024-03-22T14:08:41;19.50;16.50;8.50
30713;PMS7003;17465;47.934;33.430;2024-03-22T14:11:12;17.75;16.75;12.50
30713;PMS7003;17465;47.934;33.430;2024-03-22T14:13:42;20.75;18.25;10.75